Time;durP1;ratioP1;P1;durP2;ratioP2;P2;SDS_P1;SDS_P2;PMS_P1;PMS_P2;Temp;Humidity;BMP_temperature;BMP_pressure;BME280_temperature;BME280_humidity;BME280_pressure;Samples;Min_cycle;Max_cycle;Signal;HPM_P1;HPM_P2
2021/12/06 07:07:13;;;;;;;5.77;4.80;;;;;;;;;;6186798;22;1352873;-90
2021/12/06 07:09:42;;;;;;;7.37;4.67;;;;;;;;;;6197224;23;20206;-90
2021/12/06 07:12:14;;;;;;;5.97;4.80;;;;;;;;;;6185401;23;20179;-89
2021/12/06 07:14:41;;;;;;;6.50;4.83;;;;;;;;;;6186561;23;20186;-91
2021/12/06 07:17:09;;;;;;;9.00;5.10;;;;;;;;;;6186256;23;20189;-90
2021/12/06 07:19:36;;;;;;;6.10;4.70;;;;;;;;;;6185720;23;20199;-90
2021/12/06 07:22:04;;;;;;;6.77;5.17;;;;;;;;;;6186348;23;20206;-90
2021/12/06 07:24:33;;;;;;;8.90;5.17;;;;;;;;;;6191220;23;20179;-89
2021/12/06 07:27:00;;;;;;;8.17;5.37;;;;;;;;;;6184093;23;20233;-90
2021/12/06 07:29:29;;;;;;;6.67;4.90;;;;;;;;;;6182092;23;20256;-89
2021/12/06 07:31:56;;;;;;;5.90;4.97;;;;;;;;;;6182458;23;20175;-90
2021/12/06 07:34:23;;;;;;;19.93;11.87;;;;;;;;;;6183072;23;20179;-90
2021/12/06 07:36:51;;;;;;;8.47;6.27;;;;;;;;;;6182839;23;20562;-90
2021/12/06 07:39:21;;;;;;;5.97;5.37;;;;;;;;;;6182943;23;20199;-92
2021/12/06 07:41:50;;;;;;;6.87;5.50;;;;;;;;;;6183420;23;20178;-90
2021/12/06 07:44:17;;;;;;;6.87;5.60;;;;;;;;;;6182850;23;20179;-90
2021/12/06 07:46:46;;;;;;;9.00;5.60;;;;;;;;;;6182586;23;20638;-93
2021/12/06 07:49:14;;;;;;;9.27;5.50;;;;;;;;;;6182678;23;20195;-89
2021/12/06 07:51:41;;;;;;;6.80;4.97;;;;;;;;;;6182236;23;20183;-89
2021/12/06 07:54:08;;;;;;;6.90;5.07;;;;;;;;;;6182637;23;20225;-92
2021/12/06 07:56:36;;;;;;;7.23;4.80;;;;;;;;;;6183192;23;20179;-92
2021/12/06 07:59:07;;;;;;;5.73;4.90;;;;;;;;;;6182003;23;20202;-93
2021/12/06 08:01:34;;;;;;;6.90;5.00;;;;;;;;;;6182235;23;20175;-92
2021/12/06 08:04:01;;;;;;;7.17;5.43;;;;;;;;;;6182941;23;20241;-93
2021/12/06 08:06:29;;;;;;;6.40;5.00;;;;;;;;;;6182282;23;20240;-92
2021/12/06 08:08:56;;;;;;;7.83;4.97;;;;;;;;;;6181994;23;20195;-92
2021/12/06 08:11:25;;;;;;;7.17;5.13;;;;;;;;;;6182775;23;20228;-94
2021/12/06 08:13:54;;;;;;;8.20;6.03;;;;;;;;;;6182870;23;20605;-92
2021/12/06 08:16:24;;;;;;;7.07;5.37;;;;;;;;;;6181242;23;20174;-92
2021/12/06 08:18:51;;;;;;;7.73;5.40;;;;;;;;;;6181085;23;20226;-93
2021/12/06 08:21:20;;;;;;;9.13;6.30;;;;;;;;;;6182808;23;20711;-92
2021/12/06 08:23:49;;;;;;;7.77;6.07;;;;;;;;;;6182379;23;20273;-92
2021/12/06 08:26:16;;;;;;;9.93;5.40;;;;;;;;;;6182322;23;20294;-92
2021/12/06 08:28:44;;;;;;;10.53;5.73;;;;;;;;;;6183094;23;20249;-94
2021/12/06 08:31:12;;;;;;;7.20;5.63;;;;;;;;;;6182709;23;20233;-92
2021/12/06 08:33:41;;;;;;;9.87;6.20;;;;;;;;;;6181906;23;20186;-93
2021/12/06 08:36:12;;;;;;;10.70;6.13;;;;;;;;;;6182237;23;20183;-92
2021/12/06 08:38:43;;;;;;;9.10;6.23;;;;;;;;;;6182741;23;20199;-92
2021/12/06 08:41:12;;;;;;;10.63;6.47;;;;;;;;;;6182564;23;20469;-92
2021/12/06 08:43:40;;;;;;;7.77;6.40;;;;;;;;;;6181712;23;20668;-92
2021/12/06 08:46:09;;;;;;;10.83;6.90;;;;;;;;;;6182189;23;20183;-93
2021/12/06 08:48:38;;;;;;;9.87;6.93;;;;;;;;;;6182959;23;20585;-92
2021/12/06 08:51:07;;;;;;;12.50;7.70;;;;;;;;;;6182543;23;20178;-92
2021/12/06 08:53:35;;;;;;;10.93;7.73;;;;;;;;;;6182002;23;20241;-92
2021/12/06 08:56:02;;;;;;;12.30;8.13;;;;;;;;;;6182679;23;20182;-92
2021/12/06 08:58:30;;;;;;;12.47;7.70;;;;;;;;;;6181310;23;20257;-92
2021/12/06 09:00:57;;;;;;;14.40;8.77;;;;;;;;;;6181831;23;20183;-93
2021/12/06 09:03:25;;;;;;;15.23;8.90;;;;;;;;;;6182076;23;20175;-92
2021/12/06 09:05:53;;;;;;;11.57;8.17;;;;;;;;;;6181713;23;20816;-92
2021/12/06 09:08:23;;;;;;;11.93;7.93;;;;;;;;;;6181664;23;20178;-92
2021/12/06 09:10:52;;;;;;;11.27;8.43;;;;;;;;;;6181907;23;20478;-92
2021/12/06 09:13:19;;;;;;;12.00;8.47;;;;;;;;;;6182267;23;20179;-92
2021/12/06 09:15:47;;;;;;;11.27;8.17;;;;;;;;;;6181655;23;20178;-92
2021/12/06 09:18:14;;;;;;;13.63;9.40;;;;;;;;;;6181487;23;20237;-93
2021/12/06 09:20:43;;;;;;;15.20;8.53;;;;;;;;;;6182347;23;20249;-90
2021/12/06 09:23:12;;;;;;;11.77;8.60;;;;;;;;;;6181375;23;20244;-90
2021/12/06 09:25:42;;;;;;;15.90;9.57;;;;;;;;;;6181105;23;20206;-90
2021/12/06 09:28:10;;;;;;;12.50;8.80;;;;;;;;;;6181954;23;20177;-91
2021/12/06 09:30:37;;;;;;;14.37;9.37;;;;;;;;;;6181826;23;20174;-90
2021/12/06 09:33:07;;;;;;;12.40;8.97;;;;;;;;;;6181369;23;20179;-90
2021/12/06 09:35:36;;;;;;;12.37;8.37;;;;;;;;;;6181714;23;20626;-92
2021/12/06 09:38:12;;;;;;;13.43;9.40;;;;;;;;;;6182234;23;20174;-90
2021/12/06 09:40:43;;;;;;;12.57;9.13;;;;;;;;;;6182011;23;20190;-90
2021/12/06 09:43:13;;;;;;;12.43;8.83;;;;;;;;;;6181367;23;20641;-90
2021/12/06 09:45:41;;;;;;;15.07;9.53;;;;;;;;;;6181684;23;20183;-90
2021/12/06 09:48:09;;;;;;;16.17;9.43;;;;;;;;;;6180329;23;20186;-90
2021/12/06 09:50:51;;;;;;;13.07;9.13;;;;;;;;;;6178143;23;20178;-91
2021/12/06 09:53:21;;;;;;;16.17;10.17;;;;;;;;;;6179815;23;20752;-90
2021/12/06 09:55:52;;;;;;;15.97;9.70;;;;;;;;;;6181577;23;20229;-90
2021/12/06 09:58:19;;;;;;;16.87;10.93;;;;;;;;;;6181200;23;20229;-90
2021/12/06 10:00:50;;;;;;;17.47;10.00;;;;;;;;;;6182076;23;20244;-91
2021/12/06 10:03:23;;;;;;;14.60;9.63;;;;;;;;;;6181359;23;20174;-91
2021/12/06 10:05:50;;;;;;;18.47;10.83;;;;;;;;;;6181528;23;20181;-91
2021/12/06 10:08:18;;;;;;;16.33;11.13;;;;;;;;;;6181395;23;20539;-90
2021/12/06 10:10:45;;;;;;;14.07;9.37;;;;;;;;;;6181417;23;20229;-92
2021/12/06 10:13:31;;;;;;;14.23;10.13;;;;;;;;;;6181695;23;20179;-90
2021/12/06 10:16:00;;;;;;;19.83;10.30;;;;;;;;;;6181893;23;20179;-92
2021/12/06 10:18:27;;;;;;;18.83;11.23;;;;;;;;;;6181922;23;20174;-90
2021/12/06 10:20:55;;;;;;;17.83;10.43;;;;;;;;;;6180724;23;20191;-90
2021/12/06 10:23:22;;;;;;;16.23;10.93;;;;;;;;;;6181762;23;20179;-92
2021/12/06 10:25:50;;;;;;;17.17;10.80;;;;;;;;;;6181931;23;20251;-90
2021/12/06 10:28:19;;;;;;;17.20;10.47;;;;;;;;;;6181244;23;20653;-90
2021/12/06 10:30:48;;;;;;;13.33;9.83;;;;;;;;;;6181229;23;20182;-90
2021/12/06 10:33:18;;;;;;;16.97;9.23;;;;;;;;;;6181971;23;20174;-90
2021/12/06 10:35:48;;;;;;;14.30;10.17;;;;;;;;;;6181571;23;20179;-90
2021/12/06 10:38:27;;;;;;;16.83;10.43;;;;;;;;;;6180715;23;20179;-92
2021/12/06 10:40:58;;;;;;;14.50;9.93;;;;;;;;;;6181540;23;20222;-93
2021/12/06 10:43:25;;;;;;;18.37;11.30;;;;;;;;;;6181274;23;20229;-92
2021/12/06 10:45:54;;;;;;;18.67;10.30;;;;;;;;;;6181731;23;20179;-90
2021/12/06 10:48:25;;;;;;;15.63;10.90;;;;;;;;;;6181227;23;20192;-90
2021/12/06 10:50:58;;;;;;;15.60;10.23;;;;;;;;;;6181080;23;20633;-90
2021/12/06 10:53:27;;;;;;;15.10;9.60;;;;;;;;;;6181149;23;20170;-90
2021/12/06 10:55:56;;;;;;;14.37;9.77;;;;;;;;;;6180517;23;20224;-91
2021/12/06 10:58:24;;;;;;;17.03;10.83;;;;;;;;;;6181374;23;20282;-90
2021/12/06 11:00:53;;;;;;;15.37;9.73;;;;;;;;;;6181138;23;20199;-90
2021/12/06 11:03:30;;;;;;;15.03;9.57;;;;;;;;;;6180963;23;20250;-90
2021/12/06 11:06:04;;;;;;;17.33;9.90;;;;;;;;;;6180576;23;20178;-91
2021/12/06 11:08:34;;;;;;;13.87;9.50;;;;;;;;;;6180731;23;20287;-91
2021/12/06 11:13:55;;;;;;;15.17;9.60;;;;;;;;;;6180779;23;20242;-90
2021/12/06 11:16:24;;;;;;;13.13;9.43;;;;;;;;;;6180948;23;20233;-91
2021/12/06 11:18:54;;;;;;;18.00;10.30;;;;;;;;;;6181401;23;20904;-90
2021/12/06 11:21:30;;;;;;;15.03;9.43;;;;;;;;;;6181266;23;20218;-90
2021/12/06 11:24:02;;;;;;;13.27;9.03;;;;;;;;;;6182309;23;20763;-91
2021/12/06 11:26:29;;;;;;;12.57;8.93;;;;;;;;;;6182484;23;20178;-90
2021/12/06 11:29:03;;;;;;;12.93;8.67;;;;;;;;;;6188475;23;20198;-91
2021/12/06 11:31:31;;;;;;;14.10;8.73;;;;;;;;;;6182944;23;20182;-90
2021/12/06 11:34:06;;;;;;;21.53;9.40;;;;;;;;;;6182575;23;20179;-90
2021/12/06 11:36:34;;;;;;;13.17;8.43;;;;;;;;;;6182647;23;20795;-90
2021/12/06 11:39:04;;;;;;;13.90;8.70;;;;;;;;;;6182601;23;20198;-90
2021/12/06 11:41:31;;;;;;;15.33;7.97;;;;;;;;;;6182586;23;20237;-90
2021/12/06 11:43:59;;;;;;;13.40;9.13;;;;;;;;;;6182880;23;20795;-89
2021/12/06 11:46:31;;;;;;;17.93;8.93;;;;;;;;;;6182476;23;20175;-90
2021/12/06 11:49:20;;;;;;;14.67;8.73;;;;;;;;;;6182461;23;20203;-91
2021/12/06 11:51:51;;;;;;;12.20;7.87;;;;;;;;;;6182219;23;20186;-90
2021/12/06 11:54:19;;;;;;;11.10;7.97;;;;;;;;;;6182638;23;20179;-90
2021/12/06 11:56:48;;;;;;;11.13;6.83;;;;;;;;;;6182871;23;20551;-90
2021/12/06 11:59:17;;;;;;;10.50;6.57;;;;;;;;;;6182471;23;20201;-90
2021/12/06 12:01:46;;;;;;;9.00;6.67;;;;;;;;;;6182292;23;20182;-91
2021/12/06 12:04:15;;;;;;;8.23;6.00;;;;;;;;;;6182738;23;20190;-91
2021/12/06 12:06:43;;;;;;;9.50;5.87;;;;;;;;;;6182262;23;20191;-90
2021/12/06 12:09:14;;;;;;;7.33;5.23;;;;;;;;;;6182650;23;20199;-90
2021/12/06 12:11:56;;;;;;;10.17;6.17;;;;;;;;;;6182393;23;20179;-91
2021/12/06 12:14:41;;;;;;;7.57;5.60;;;;;;;;;;6182237;23;20256;-90
2021/12/06 12:17:10;;;;;;;8.53;5.73;;;;;;;;;;6182391;23;20184;-90
2021/12/06 12:19:39;;;;;;;6.10;5.17;;;;;;;;;;6182135;23;20202;-90
2021/12/06 12:22:06;;;;;;;6.47;4.90;;;;;;;;;;6182296;23;20174;-90
2021/12/06 12:24:37;;;;;;;7.20;5.20;;;;;;;;;;6182212;23;20182;-90
2021/12/06 12:27:15;;;;;;;10.30;4.80;;;;;;;;;;6182051;23;20205;-90
2021/12/06 12:29:43;;;;;;;5.33;4.40;;;;;;;;;;6182826;23;20967;-90
2021/12/06 12:32:11;;;;;;;5.27;4.27;;;;;;;;;;6181704;23;20677;-90
2021/12/06 12:34:40;;;;;;;6.93;4.57;;;;;;;;;;6182151;23;20232;-91
2021/12/06 12:37:09;;;;;;;4.40;3.97;;;;;;;;;;6182500;23;20238;-90
2021/12/06 12:39:37;;;;;;;6.00;4.60;;;;;;;;;;6181771;23;20257;-90
2021/12/06 12:42:06;;;;;;;5.63;3.80;;;;;;;;;;6181548;23;20546;-90
2021/12/06 12:44:44;;;;;;;4.70;3.97;;;;;;;;;;6182708;23;20692;-92
2021/12/06 12:47:15;;;;;;;4.17;3.57;;;;;;;;;;6182451;23;20178;-92
2021/12/06 12:49:45;;;;;;;4.83;3.63;;;;;;;;;;6181843;23;20194;-90
2021/12/06 12:52:12;;;;;;;4.83;3.60;;;;;;;;;;6181098;23;20266;-90
2021/12/06 12:54:43;;;;;;;3.80;3.40;;;;;;;;;;6181163;23;20726;-90
2021/12/06 12:57:14;;;;;;;4.30;3.13;;;;;;;;;;6181411;23;20174;-90
2021/12/06 12:59:48;;;;;;;4.83;3.40;;;;;;;;;;6182155;23;20198;-90
2021/12/06 13:02:21;;;;;;;4.90;3.63;;;;;;;;;;6181839;23;20592;-90
2021/12/06 13:05:10;;;;;;;4.30;3.80;;;;;;;;;;6181870;23;20191;-90
2021/12/06 13:07:55;;;;;;;4.53;3.70;;;;;;;;;;6181538;23;20510;-90
2021/12/06 13:10:35;;;;;;;8.83;3.97;;;;;;;;;;6181841;23;20195;-91
2021/12/06 13:13:04;;;;;;;5.03;3.80;;;;;;;;;;6181732;23;20178;-91
2021/12/06 13:15:47;;;;;;;7.47;4.07;;;;;;;;;;6182439;23;20609;-89
2021/12/06 13:18:34;;;;;;;4.37;3.83;;;;;;;;;;6181830;23;20175;-91
2021/12/06 13:21:27;;;;;;;5.43;4.27;;;;;;;;;;6181552;23;20205;-90
2021/12/06 13:29:45;;;;;;;6.00;4.33;;;;;;;;;;6176915;23;20229;-90
2021/12/06 13:32:30;;;;;;;6.10;4.77;;;;;;;;;;6181241;23;20237;-89
2021/12/06 13:34:57;;;;;;;5.73;4.40;;;;;;;;;;6181478;23;20237;-90
2021/12/06 13:37:27;;;;;;;6.33;4.73;;;;;;;;;;6181277;23;20237;-90
2021/12/06 13:39:54;;;;;;;5.77;4.40;;;;;;;;;;6179972;23;20973;-89
2021/12/06 13:42:36;;;;;;;5.23;4.43;;;;;;;;;;6180939;23;20182;-89
2021/12/06 13:45:06;;;;;;;5.63;4.00;;;;;;;;;;6181780;23;20171;-92
2021/12/06 13:47:34;;;;;;;6.90;4.57;;;;;;;;;;6181934;23;20178;-90
2021/12/06 13:50:02;;;;;;;6.50;4.70;;;;;;;;;;6181806;23;20198;-90
2021/12/06 13:52:34;;;;;;;4.60;3.83;;;;;;;;;;6181187;23;20178;-90
2021/12/06 13:55:02;;;;;;;4.70;4.03;;;;;;;;;;6182160;23;20253;-91
2021/12/06 13:57:31;;;;;;;6.40;5.33;;;;;;;;;;6181607;23;20209;-90
2021/12/06 14:00:04;;;;;;;6.47;5.03;;;;;;;;;;6181490;23;20199;-90
2021/12/06 14:02:35;;;;;;;6.17;4.10;;;;;;;;;;6181114;23;20174;-90
2021/12/06 14:05:02;;;;;;;5.63;4.30;;;;;;;;;;6181762;23;20177;-92
2021/12/06 14:07:31;;;;;;;8.70;5.43;;;;;;;;;;6181601;23;20186;-90
2021/12/06 14:10:00;;;;;;;7.30;5.03;;;;;;;;;;6181475;23;20536;-90
2021/12/06 14:12:28;;;;;;;6.03;4.37;;;;;;;;;;6180943;23;20233;-91
2021/12/06 14:15:03;;;;;;;6.67;4.53;;;;;;;;;;6182101;23;20175;-90
2021/12/06 14:17:30;;;;;;;5.23;3.93;;;;;;;;;;6182223;23;20248;-90
2021/12/06 14:20:00;;;;;;;4.47;4.07;;;;;;;;;;6181335;23;20199;-90
2021/12/06 14:22:28;;;;;;;6.40;4.47;;;;;;;;;;6180292;23;20233;-90
2021/12/06 14:24:55;;;;;;;7.37;4.53;;;;;;;;;;6181901;23;20200;-90
2021/12/06 14:27:26;;;;;;;4.83;4.20;;;;;;;;;;6181365;23;20179;-90
2021/12/06 14:29:54;;;;;;;4.77;3.93;;;;;;;;;;6181473;23;20249;-90
2021/12/06 14:32:22;;;;;;;4.63;3.90;;;;;;;;;;6181809;23;20174;-90
2021/12/06 14:34:50;;;;;;;4.17;3.17;;;;;;;;;;6184288;23;20225;-90
2021/12/06 14:37:20;;;;;;;4.13;3.00;;;;;;;;;;6184412;23;20179;-90
2021/12/06 14:39:51;;;;;;;3.43;3.13;;;;;;;;;;6184240;23;20206;-90
2021/12/06 14:42:19;;;;;;;3.97;3.10;;;;;;;;;;6184813;23;20246;-90
2021/12/06 14:44:48;;;;;;;4.13;3.47;;;;;;;;;;6184670;23;20179;-89
2021/12/06 14:47:17;;;;;;;5.83;3.53;;;;;;;;;;6185259;23;20181;-90
2021/12/06 14:49:46;;;;;;;4.60;3.00;;;;;;;;;;6184479;23;20206;-89
2021/12/06 14:52:17;;;;;;;3.57;3.07;;;;;;;;;;6184934;23;20254;-90
2021/12/06 14:55:04;;;;;;;5.57;3.20;;;;;;;;;;6184994;23;20512;-89
2021/12/06 14:57:32;;;;;;;6.53;3.40;;;;;;;;;;6184009;23;20197;-89
2021/12/06 15:00:02;;;;;;;2.83;2.60;;;;;;;;;;6186554;23;20257;-90
2021/12/06 15:02:34;;;;;;;5.37;3.13;;;;;;;;;;6186370;23;20249;-89
2021/12/06 15:05:03;;;;;;;6.00;3.13;;;;;;;;;;6184784;23;20175;-90
2021/12/06 15:07:31;;;;;;;5.10;2.70;;;;;;;;;;6186410;23;20188;-90
2021/12/06 15:09:59;;;;;;;3.97;3.20;;;;;;;;;;6185825;23;20195;-90
2021/12/06 15:12:27;;;;;;;5.37;3.20;;;;;;;;;;6186443;23;20555;-90
2021/12/06 15:14:54;;;;;;;3.43;2.70;;;;;;;;;;6186477;23;20190;-89
2021/12/06 15:17:22;;;;;;;4.43;3.20;;;;;;;;;;6185506;23;20175;-90
2021/12/06 15:19:49;;;;;;;3.83;2.70;;;;;;;;;;6185753;23;20199;-90
2021/12/06 15:22:17;;;;;;;5.87;2.97;;;;;;;;;;6185196;23;20194;-90
2021/12/06 15:25:14;;;;;;;3.67;2.70;;;;;;;;;;6186289;23;20225;-90
2021/12/06 15:27:43;;;;;;;5.50;2.93;;;;;;;;;;6186216;23;20693;-90
2021/12/06 15:30:14;;;;;;;7.53;3.53;;;;;;;;;;6185712;23;20206;-90
2021/12/06 15:32:43;;;;;;;3.63;2.70;;;;;;;;;;6186091;23;20206;-89
2021/12/06 15:35:10;;;;;;;5.43;3.50;;;;;;;;;;6186265;23;20175;-90
2021/12/06 15:37:38;;;;;;;4.53;3.00;;;;;;;;;;6185355;23;20282;-89
2021/12/06 15:40:07;;;;;;;4.27;3.10;;;;;;;;;;6185910;23;20595;-90
2021/12/06 15:42:34;;;;;;;4.07;2.77;;;;;;;;;;6186175;23;20191;-90
2021/12/06 15:45:05;;;;;;;2.60;2.40;;;;;;;;;;6185416;23;20233;-90
2021/12/06 15:47:36;;;;;;;2.83;2.40;;;;;;;;;;6186090;23;20228;-90
2021/12/06 15:50:10;;;;;;;3.80;2.57;;;;;;;;;;6186244;23;20195;-90
2021/12/06 15:52:38;;;;;;;3.77;2.93;;;;;;;;;;6186218;23;20673;-90
2021/12/06 15:55:08;;;;;;;7.43;3.70;;;;;;;;;;6185411;23;20182;-90
2021/12/06 15:57:39;;;;;;;3.90;2.63;;;;;;;;;;6185798;23;20264;-90
2021/12/06 16:00:12;;;;;;;4.40;2.80;;;;;;;;;;6186075;23;20210;-89
2021/12/06 16:02:41;;;;;;;3.93;2.20;;;;;;;;;;6186293;23;20223;-90
2021/12/06 16:05:10;;;;;;;2.60;1.83;;;;;;;;;;6185496;23;20178;-90
2021/12/06 16:07:38;;;;;;;2.70;2.50;;;;;;;;;;6185184;23;20191;-90
2021/12/06 16:10:07;;;;;;;3.60;2.67;;;;;;;;;;6185844;23;20498;-89
2021/12/06 16:12:35;;;;;;;4.63;2.43;;;;;;;;;;6185540;23;20225;-90
2021/12/06 16:15:04;;;;;;;4.73;2.70;;;;;;;;;;6185853;23;20179;-90
2021/12/06 16:17:35;;;;;;;3.17;2.77;;;;;;;;;;6185402;23;20258;-89
2021/12/06 16:20:04;;;;;;;3.87;2.50;;;;;;;;;;6185855;23;20199;-90
2021/12/06 16:22:32;;;;;;;4.43;3.40;;;;;;;;;;6184909;23;20190;-90
2021/12/06 16:24:59;;;;;;;2.70;2.37;;;;;;;;;;6185373;23;20183;-90
2021/12/06 16:27:29;;;;;;;2.03;1.80;;;;;;;;;;6185617;23;20196;-90
2021/12/06 16:29:56;;;;;;;2.30;2.10;;;;;;;;;;6184566;23;20210;-90
2021/12/06 16:32:28;;;;;;;4.33;3.17;;;;;;;;;;6185473;23;20174;-89
2021/12/06 16:34:57;;;;;;;4.70;3.10;;;;;;;;;;6185643;23;20189;-90
2021/12/06 16:37:27;;;;;;;5.00;3.77;;;;;;;;;;6184859;23;20229;-90
2021/12/06 16:39:55;;;;;;;6.93;2.87;;;;;;;;;;6185579;23;20225;-89
2021/12/06 16:42:26;;;;;;;2.53;2.00;;;;;;;;;;6185913;23;20201;-90
2021/12/06 16:44:55;;;;;;;2.17;1.73;;;;;;;;;;6185191;23;20668;-89
2021/12/06 16:47:24;;;;;;;2.03;1.60;;;;;;;;;;6185209;23;20555;-90
2021/12/06 16:49:52;;;;;;;4.13;1.60;;;;;;;;;;6185397;23;20199;-89
2021/12/06 16:52:23;;;;;;;1.77;1.67;;;;;;;;;;6185250;23;20175;-90
2021/12/06 16:54:56;;;;;;;1.90;1.60;;;;;;;;;;6185452;23;20178;-90
2021/12/06 16:57:23;;;;;;;1.70;1.60;;;;;;;;;;6185214;23;20208;-89
2021/12/06 16:59:51;;;;;;;1.83;1.67;;;;;;;;;;6185456;23;20198;-90
2021/12/06 17:02:20;;;;;;;3.73;2.10;;;;;;;;;;6185047;23;20217;-90
2021/12/06 17:04:49;;;;;;;1.93;1.83;;;;;;;;;;6185337;23;20282;-90
2021/12/06 17:07:34;;;;;;;2.57;1.87;;;;;;;;;;6185017;23;20587;-90
2021/12/06 17:10:04;;;;;;;3.50;1.80;;;;;;;;;;6185453;23;20199;-89
2021/12/06 17:12:33;;;;;;;10.23;2.17;;;;;;;;;;6185080;23;20505;-90
2021/12/06 17:15:14;;;;;;;4.60;1.97;;;;;;;;;;6184922;23;20183;-89
2021/12/06 17:17:44;;;;;;;2.73;2.23;;;;;;;;;;6185240;23;20233;-90
2021/12/06 17:20:18;;;;;;;3.33;2.33;;;;;;;;;;6184875;23;20202;-90
2021/12/06 17:22:47;;;;;;;5.00;2.80;;;;;;;;;;6184469;23;20536;-90
2021/12/06 17:25:14;;;;;;;7.43;4.23;;;;;;;;;;6185144;23;20494;-89
2021/12/06 17:27:46;;;;;;;5.43;4.00;;;;;;;;;;6185427;23;20179;-90
2021/12/06 17:30:15;;;;;;;6.33;4.70;;;;;;;;;;6183818;23;20198;-90
2021/12/06 17:32:53;;;;;;;7.07;4.90;;;;;;;;;;6184783;23;20170;-90
2021/12/06 17:35:36;;;;;;;6.00;4.60;;;;;;;;;;6184883;23;20489;-90
2021/12/06 17:38:05;;;;;;;4.87;4.30;;;;;;;;;;6185021;23;20225;-90
2021/12/06 17:40:32;;;;;;;4.80;3.43;;;;;;;;;;6185036;23;20199;-90
2021/12/06 17:42:59;;;;;;;5.13;4.07;;;;;;;;;;6184552;23;20656;-90
2021/12/06 17:45:27;;;;;;;5.27;3.93;;;;;;;;;;6185252;23;20629;-90
2021/12/06 17:47:55;;;;;;;5.40;3.67;;;;;;;;;;6184738;23;20178;-90
2021/12/06 17:50:22;;;;;;;5.90;3.83;;;;;;;;;;6184922;23;20198;-90
2021/12/06 17:52:50;;;;;;;5.93;4.77;;;;;;;;;;6185026;23;20263;-90
2021/12/06 17:55:18;;;;;;;5.10;3.97;;;;;;;;;;6184786;23;20178;-91
2021/12/06 17:57:53;;;;;;;5.20;4.40;;;;;;;;;;6178788;23;20251;-90
2021/12/06 18:00:21;;;;;;;6.00;4.10;;;;;;;;;;6181275;23;20811;-90
2021/12/06 18:02:55;;;;;;;5.50;4.30;;;;;;;;;;6181403;23;20503;-90
2021/12/06 18:05:23;;;;;;;7.20;6.50;;;;;;;;;;6181110;23;20180;-90
2021/12/06 18:07:50;;;;;;;8.67;5.13;;;;;;;;;;6181506;23;20186;-90
2021/12/06 18:10:19;;;;;;;5.27;4.50;;;;;;;;;;6180999;23;20252;-90
2021/12/06 18:12:46;;;;;;;4.30;3.87;;;;;;;;;;6180941;23;20174;-90
2021/12/06 18:15:14;;;;;;;4.53;3.93;;;;;;;;;;6181574;23;20179;-92
2021/12/06 18:17:41;;;;;;;3.93;3.53;;;;;;;;;;6181234;23;20178;-92
2021/12/06 18:20:12;;;;;;;4.87;3.83;;;;;;;;;;6181188;23;20198;-92
2021/12/06 18:22:39;;;;;;;4.80;3.60;;;;;;;;;;6180804;23;20680;-92
2021/12/06 18:25:07;;;;;;;3.60;3.30;;;;;;;;;;6181580;23;20186;-91
2021/12/06 18:27:37;;;;;;;4.67;3.37;;;;;;;;;;6180536;23;20178;-90
2021/12/06 18:30:05;;;;;;;4.73;3.30;;;;;;;;;;6181308;23;20218;-91
2021/12/06 18:32:33;;;;;;;6.70;5.00;;;;;;;;;;6192271;23;20245;-91
2021/12/06 18:35:00;;;;;;;5.63;3.87;;;;;;;;;;6187680;23;20262;-91
2021/12/06 18:37:31;;;;;;;8.47;5.47;;;;;;;;;;6183311;23;20178;-92
2021/12/06 18:40:04;;;;;;;8.17;6.37;;;;;;;;;;6183927;23;20198;-91
2021/12/06 18:42:39;;;;;;;12.80;6.43;;;;;;;;;;6183075;23;20194;-90
2021/12/06 18:45:08;;;;;;;6.37;4.90;;;;;;;;;;6183641;23;20244;-90
2021/12/06 18:47:42;;;;;;;9.10;5.83;;;;;;;;;;6183011;23;20202;-90
2021/12/06 18:50:12;;;;;;;5.17;4.40;;;;;;;;;;6182977;23;20733;-90
2021/12/06 18:52:40;;;;;;;4.20;3.50;;;;;;;;;;6183794;23;20171;-93
2021/12/06 18:55:07;;;;;;;4.80;3.93;;;;;;;;;;6183269;23;20954;-93
2021/12/06 18:57:35;;;;;;;5.77;4.20;;;;;;;;;;6182737;23;20618;-91
2021/12/06 19:00:04;;;;;;;4.13;3.73;;;;;;;;;;6182543;23;20198;-90
2021/12/06 19:02:33;;;;;;;3.87;3.47;;;;;;;;;;6183594;23;20469;-90
2021/12/06 19:05:00;;;;;;;4.97;3.50;;;;;;;;;;6182566;23;20257;-91
2021/12/06 19:07:28;;;;;;;4.00;3.40;;;;;;;;;;6182832;23;20182;-91
2021/12/06 19:10:07;;;;;;;3.77;3.40;;;;;;;;;;6183198;23;20218;-91
2021/12/06 19:12:35;;;;;;;5.33;3.83;;;;;;;;;;6183453;23;20174;-90
2021/12/06 19:15:02;;;;;;;6.13;3.13;;;;;;;;;;6183164;23;20175;-90
2021/12/06 19:17:29;;;;;;;5.07;3.80;;;;;;;;;;6182205;23;20229;-90
2021/12/06 19:19:58;;;;;;;9.47;5.10;;;;;;;;;;6183367;23;20199;-90
2021/12/06 19:22:25;;;;;;;4.87;3.60;;;;;;;;;;6182992;23;20222;-90
2021/12/06 19:24:53;;;;;;;4.90;3.80;;;;;;;;;;6182219;23;20692;-90
2021/12/06 19:27:20;;;;;;;5.87;3.83;;;;;;;;;;6183272;23;20175;-91
2021/12/06 19:29:47;;;;;;;3.27;2.97;;;;;;;;;;6183056;23;20195;-90
2021/12/06 19:32:15;;;;;;;4.10;2.70;;;;;;;;;;6182778;23;20700;-90
2021/12/06 19:34:45;;;;;;;2.60;2.40;;;;;;;;;;6182956;23;20246;-91
2021/12/06 19:37:14;;;;;;;10.73;5.47;;;;;;;;;;6183086;23;20254;-90
2021/12/06 19:39:42;;;;;;;11.70;6.93;;;;;;;;;;6182441;23;20587;-90
2021/12/06 19:42:10;;;;;;;7.33;4.90;;;;;;;;;;6182605;23;20194;-91
2021/12/06 19:44:45;;;;;;;5.13;3.63;;;;;;;;;;6182879;23;20174;-90
2021/12/06 19:47:14;;;;;;;3.73;3.30;;;;;;;;;;6183266;23;20625;-90
2021/12/06 19:52:45;;;;;;;7.53;3.50;;;;;;;;;;6185484;23;20182;-90
2021/12/06 19:55:14;;;;;;;5.00;2.80;;;;;;;;;;6185568;23;20531;-89
2021/12/06 19:57:41;;;;;;;2.97;2.70;;;;;;;;;;6185804;23;20178;-90
2021/12/06 20:00:19;;;;;;;3.67;3.03;;;;;;;;;;6185038;23;20202;-90
2021/12/06 20:02:46;;;;;;;3.87;2.80;;;;;;;;;;6185816;23;20257;-90
2021/12/06 20:05:14;;;;;;;3.57;2.90;;;;;;;;;;6186162;23;20179;-89
2021/12/06 20:07:41;;;;;;;4.97;3.17;;;;;;;;;;6184891;23;20213;-90
2021/12/06 20:10:10;;;;;;;3.63;2.87;;;;;;;;;;6185513;23;20205;-90
2021/12/06 20:12:39;;;;;;;4.23;3.20;;;;;;;;;;6185462;23;20174;-90
2021/12/06 20:15:08;;;;;;;4.57;2.60;;;;;;;;;;6185534;23;20186;-89
2021/12/06 20:17:36;;;;;;;5.67;3.30;;;;;;;;;;6185405;23;20182;-90
2021/12/06 20:20:04;;;;;;;3.87;3.40;;;;;;;;;;6185709;23;20199;-89
2021/12/06 20:22:31;;;;;;;7.30;4.40;;;;;;;;;;6185736;23;20190;-89
2021/12/06 20:24:59;;;;;;;8.50;4.50;;;;;;;;;;6185544;23;20178;-89
2021/12/06 20:27:27;;;;;;;8.50;4.77;;;;;;;;;;6185827;23;20174;-89
2021/12/06 20:29:55;;;;;;;4.57;3.77;;;;;;;;;;6185389;23;20269;-90
2021/12/06 20:32:25;;;;;;;9.83;5.37;;;;;;;;;;6184703;23;20177;-89
2021/12/06 20:34:52;;;;;;;4.53;3.67;;;;;;;;;;6185179;23;20182;-90
2021/12/06 20:37:19;;;;;;;11.93;5.53;;;;;;;;;;6183174;23;20181;-89
2021/12/06 20:39:47;;;;;;;9.47;4.80;;;;;;;;;;6184845;23;20257;-90
2021/12/06 20:42:15;;;;;;;9.17;5.57;;;;;;;;;;6185011;23;20190;-90
2021/12/06 20:44:42;;;;;;;6.30;3.57;;;;;;;;;;6185278;23;20187;-90
2021/12/06 20:47:11;;;;;;;3.93;3.03;;;;;;;;;;6185233;23;20501;-90
2021/12/06 20:49:38;;;;;;;6.07;4.43;;;;;;;;;;6184299;23;20922;-89
2021/12/06 20:52:06;;;;;;;3.63;2.90;;;;;;;;;;6185031;23;20233;-90
2021/12/06 20:54:34;;;;;;;4.30;3.37;;;;;;;;;;6185295;23;20181;-90
2021/12/06 20:57:02;;;;;;;4.67;3.20;;;;;;;;;;6185192;23;20626;-90
2021/12/06 20:59:29;;;;;;;6.20;4.03;;;;;;;;;;6183942;23;20582;-89
2021/12/06 21:01:57;;;;;;;5.97;4.57;;;;;;;;;;6185078;23;20178;-90
2021/12/06 21:04:48;;;;;;;6.33;4.93;;;;;;;;;;6185320;23;20244;-89
2021/12/06 21:07:16;;;;;;;5.37;4.10;;;;;;;;;;6184826;23;20188;-90
2021/12/06 21:09:46;;;;;;;9.33;5.23;;;;;;;;;;6184283;23;20198;-89
2021/12/06 21:12:23;;;;;;;7.83;5.83;;;;;;;;;;6185208;23;20637;-90
2021/12/06 21:15:28;;;;;;;9.07;5.90;;;;;;;;;;6185300;23;20671;-89
2021/12/06 21:17:55;;;;;;;8.83;5.70;;;;;;;;;;6183739;23;20254;-89
2021/12/06 21:20:23;;;;;;;7.83;5.13;;;;;;;;;;6184348;23;20266;-90
2021/12/06 21:22:52;;;;;;;7.27;4.93;;;;;;;;;;6184866;23;20195;-89
2021/12/06 21:25:21;;;;;;;7.83;5.03;;;;;;;;;;6185279;23;20492;-90
2021/12/06 21:27:49;;;;;;;6.33;4.60;;;;;;;;;;6183501;23;20178;-90
2021/12/06 21:30:16;;;;;;;8.57;5.57;;;;;;;;;;6184801;23;20252;-90
2021/12/06 21:32:44;;;;;;;8.93;6.13;;;;;;;;;;6184902;23;20626;-89
2021/12/06 21:35:11;;;;;;;10.97;7.03;;;;;;;;;;6184975;23;20234;-89
2021/12/06 21:37:38;;;;;;;12.13;6.30;;;;;;;;;;6183709;23;20178;-89
2021/12/06 21:40:11;;;;;;;12.43;6.20;;;;;;;;;;6185013;23;20257;-89
2021/12/06 21:42:39;;;;;;;7.90;5.33;;;;;;;;;;6184460;23;20191;-90
2021/12/06 21:45:07;;;;;;;10.10;5.97;;;;;;;;;;6184295;23;20178;-90
2021/12/06 21:47:35;;;;;;;8.37;5.47;;;;;;;;;;6184735;23;20178;-91
2021/12/06 21:50:02;;;;;;;9.73;6.50;;;;;;;;;;6184932;23;20194;-91
2021/12/06 21:52:30;;;;;;;11.13;6.10;;;;;;;;;;6184850;23;20187;-90
2021/12/06 21:54:57;;;;;;;7.80;5.93;;;;;;;;;;6184677;23;20178;-91
2021/12/06 21:57:42;;;;;;;9.97;6.10;;;;;;;;;;6185029;23;20179;-90
2021/12/06 22:00:14;;;;;;;8.67;6.07;;;;;;;;;;6185012;23;20241;-89
2021/12/06 22:02:41;;;;;;;8.87;6.20;;;;;;;;;;6184534;23;20198;-91
2021/12/06 22:05:09;;;;;;;10.17;7.00;;;;;;;;;;6184716;23;20723;-91
2021/12/06 22:07:37;;;;;;;10.63;6.90;;;;;;;;;;6184445;23;20189;-90
2021/12/06 22:10:04;;;;;;;9.53;6.97;;;;;;;;;;6184546;23;20248;-91
2021/12/06 22:12:32;;;;;;;9.70;6.87;;;;;;;;;;6184223;23;20179;-91